EGBJ

Gloucestershire Airport

Staverton, United Kingdom
METAR EGBJ 231050Z 25016G26KT 9999 FEW008 SCT012 12/11 Q1012
Observed Flight Rules
Jan-23 @ 10:50 UTC (an hour ago) Visual Flight Rules
Wind Visibility Clouds
250° at 16 knots
 Gusting to 26 knots
10,000+ meters
  • Few at 800' AGL
  • Scattered at 1,200' AGL
Temperatures Readings
Current 12°C / 54°F
Dewpoint 11°C / 52°F
Humidity 94%
Altimeter 29.88" Hg
Pressure 1012 hPa
Elevation 29
METAR EGBJ 231050Z 25016G26KT 9999 FEW008 SCT012 12/11 Q1012
Observed Flight Rules
Jan-23 @ 10:50 UTC
(an hour ago)
VFR
Wind Visibility
250° at 16 knots
 Gusting to 26 knots
10,000+ meters
Clouds
  • Few at 800' AGL
  • Scattered at 1,200' AGL
Temperature Dewpoint
12°C / 54°F 11°C / 52°F
Humidity Altimeter Pressure
94% 29.88" Hg 1012 hPa